Time;durP1;ratioP1;P1;durP2;ratioP2;P2;SDS_P1;SDS_P2;PMS_P1;PMS_P2;Temp;Humidity;BMP_temperature;BMP_pressure;BME280_temperature;BME280_humidity;BME280_pressure;Samples;Min_cycle;Max_cycle;Signal;HPM_P1;HPM_P2
2023/07/31 00:01:35;;;;;;;;;;;;;;;15.91;100.00;100935.47;10459663;28;19976;-63
2023/07/31 00:06:38;;;;;;;;;;;;;;;16.17;100.00;100930.75;10460014;28;20418;-63
2023/07/31 00:11:40;;;;;;;;;;;;;;;16.13;100.00;100929.34;10459956;28;19924;-63
2023/07/31 00:16:42;;;;;;;;;;;;;;;16.13;100.00;100924.06;10442108;28;19947;-64
2023/07/31 00:21:45;;;;;;;;;;;;;;;15.84;100.00;100921.91;10459724;28;19925;-63
2023/07/31 00:26:47;;;;;;;;;;;;;;;16.23;100.00;100911.81;10459252;28;19925;-63
2023/07/31 00:31:49;;;;;;;;;;;;;;;16.38;100.00;100906.28;10459180;28;20380;-63
2023/07/31 00:36:51;;;;;;;;;;;;;;;16.20;100.00;100905.94;10458866;28;20437;-63
2023/07/31 00:41:53;;;;;;;;;;;;;;;16.35;100.00;100902.88;10458802;28;19956;-63
2023/07/31 00:46:56;;;;;;;;;;;;;;;16.26;100.00;100908.09;10458690;28;19936;-63
2023/07/31 00:51:59;;;;;;;;;;;;;;;16.29;100.00;100906.03;10440751;28;19931;-63
2023/07/31 00:57:01;;;;;;;;;;;;;;;16.42;100.00;100910.34;10458192;28;19929;-63
2023/07/31 01:02:03;;;;;;;;;;;;;;;16.47;100.00;100898.41;10440411;28;19964;-63
2023/07/31 01:07:09;;;;;;;;;;;;;;;16.56;100.00;100888.94;10457821;28;20011;-63
2023/07/31 01:12:16;;;;;;;;;;;;;;;16.72;100.00;100881.41;10439154;28;20012;-64
2023/07/31 01:17:18;;;;;;;;;;;;;;;16.41;100.00;100890.16;10439953;28;19995;-64
2023/07/31 01:22:27;;;;;;;;;;;;;;;16.38;100.00;100888.59;10457512;28;19931;-64
2023/07/31 01:27:30;;;;;;;;;;;;;;;16.43;100.00;100896.16;10456919;28;20375;-64
2023/07/31 01:32:32;;;;;;;;;;;;;;;16.62;100.00;100874.38;10439786;28;19924;-64
2023/07/31 01:37:34;;;;;;;;;;;;;;;16.59;100.00;100886.00;10439243;28;19967;-64
2023/07/31 01:42:36;;;;;;;;;;;;;;;16.30;100.00;100880.44;10456757;28;20364;-63
2023/07/31 01:47:39;;;;;;;;;;;;;;;16.50;100.00;100884.13;10456688;28;19925;-64
2023/07/31 01:52:41;;;;;;;;;;;;;;;16.33;100.00;100896.06;10456482;28;20400;-64
2023/07/31 01:57:43;;;;;;;;;;;;;;;16.55;100.00;100867.91;10456507;28;20007;-64
2023/07/31 02:02:46;;;;;;;;;;;;;;;16.50;100.00;100865.63;10456408;28;19935;-64
2023/07/31 02:07:48;;;;;;;;;;;;;;;16.42;100.00;100858.31;10456254;28;19931;-64
2023/07/31 02:12:50;;;;;;;;;;;;;;;16.49;100.00;100853.38;10456414;28;20043;-64
2023/07/31 02:17:53;;;;;;;;;;;;;;;16.41;100.00;100854.00;10456121;28;19928;-64
2023/07/31 02:22:55;;;;;;;;;;;;;;;16.47;100.00;100847.38;10458249;28;19978;-64
2023/07/31 02:27:57;;;;;;;;;;;;;;;16.54;100.00;100830.03;10464005;28;19924;-64
2023/07/31 02:32:59;;;;;;;;;;;;;;;16.44;100.00;100829.13;10463894;28;20008;-64
2023/07/31 02:38:02;;;;;;;;;;;;;;;16.26;100.00;100837.59;10463921;28;20015;-64
2023/07/31 02:43:04;;;;;;;;;;;;;;;16.37;100.00;100830.59;10463527;28;19925;-64
2023/07/31 02:48:06;;;;;;;;;;;;;;;16.31;100.00;100829.31;10463261;28;20277;-64
2023/07/31 02:53:08;;;;;;;;;;;;;;;16.48;100.00;100826.13;10463148;28;20011;-64
2023/07/31 02:58:11;;;;;;;;;;;;;;;16.36;100.00;100829.75;10462822;28;19947;-64
2023/07/31 03:03:13;;;;;;;;;;;;;;;16.31;100.00;100827.50;10462743;28;19929;-64
2023/07/31 03:08:15;;;;;;;;;;;;;;;16.40;100.00;100817.13;10462493;28;19962;-64
2023/07/31 03:13:17;;;;;;;;;;;;;;;16.48;100.00;100817.34;10462318;28;19948;-64
2023/07/31 03:18:20;;;;;;;;;;;;;;;16.33;100.00;100822.09;10462051;28;19931;-64
2023/07/31 03:23:22;;;;;;;;;;;;;;;16.35;100.00;100820.16;10462057;28;19925;-64
2023/07/31 03:28:24;;;;;;;;;;;;;;;16.38;100.00;100817.25;10461545;28;20012;-64
2023/07/31 03:33:27;;;;;;;;;;;;;;;16.17;100.00;100822.47;10460756;28;20374;-64
2023/07/31 03:38:29;;;;;;;;;;;;;;;16.04;100.00;100819.13;10461035;28;19925;-64
2023/07/31 03:43:33;;;;;;;;;;;;;;;16.29;100.00;100807.44;10460989;28;20299;-64
2023/07/31 03:48:35;;;;;;;;;;;;;;;16.18;100.00;100807.47;10443491;28;20361;-64
2023/07/31 03:53:38;;;;;;;;;;;;;;;16.11;100.00;100802.69;10460786;28;19931;-64
2023/07/31 03:58:40;;;;;;;;;;;;;;;16.08;100.00;100802.94;10442789;28;19924;-64
2023/07/31 04:03:42;;;;;;;;;;;;;;;16.09;100.00;100801.97;10460330;28;19925;-65
2023/07/31 04:08:47;;;;;;;;;;;;;;;16.15;100.00;100792.72;10460132;28;20368;-65
2023/07/31 04:13:49;;;;;;;;;;;;;;;16.06;100.00;100790.81;10460096;28;20003;-65
2023/07/31 04:18:52;;;;;;;;;;;;;;;16.19;100.00;100785.38;10459808;28;20003;-65
2023/07/31 04:23:55;;;;;;;;;;;;;;;16.16;100.00;100773.28;10459687;28;19932;-65
2023/07/31 04:28:58;;;;;;;;;;;;;;;16.23;100.00;100774.44;10459245;28;19932;-65
2023/07/31 04:34:00;;;;;;;;;;;;;;;16.12;100.00;100775.31;10459401;28;19936;-65
2023/07/31 04:39:02;;;;;;;;;;;;;;;16.18;100.00;100775.78;10459140;28;19924;-65
2023/07/31 04:44:05;;;;;;;;;;;;;;;16.25;100.00;100775.16;10500016;22;20015;-73
2023/07/31 04:49:07;;;;;;;;;;;;;;;16.12;100.00;100764.75;10499737;28;19968;-73
2023/07/31 04:54:09;;;;;;;;;;;;;;;16.23;100.00;100753.31;10499773;28;19928;-73
2023/07/31 04:59:11;;;;;;;;;;;;;;;16.40;100.00;100751.09;10499776;28;20003;-72
2023/07/31 05:04:14;;;;;;;;;;;;;;;16.40;100.00;100753.72;10499429;28;19925;-72
2023/07/31 05:09:16;;;;;;;;;;;;;;;16.60;100.00;100755.53;10498124;28;19924;-72
2023/07/31 05:14:20;;;;;;;;;;;;;;;16.39;100.00;100744.13;10497900;28;20371;-72
2023/07/31 05:19:22;;;;;;;;;;;;;;;16.64;100.00;100737.63;10498954;28;20436;-72
2023/07/31 05:24:24;;;;;;;;;;;;;;;16.40;100.00;100736.06;10498660;28;19931;-72
2023/07/31 05:29:26;;;;;;;;;;;;;;;16.44;100.00;100729.56;10498588;28;20401;-72
2023/07/31 05:34:29;;;;;;;;;;;;;;;16.56;100.00;100726.84;10498830;28;19924;-73
2023/07/31 05:39:31;;;;;;;;;;;;;;;16.51;100.00;100727.25;10498666;28;19924;-73
2023/07/31 05:44:33;;;;;;;;;;;;;;;16.72;100.00;100735.16;10497982;28;19925;-74
2023/07/31 05:49:35;;;;;;;;;;;;;;;16.52;100.00;100743.00;10498209;28;20374;-74
2023/07/31 05:54:38;;;;;;;;;;;;;;;16.45;100.00;100733.88;10498071;28;20397;-73
2023/07/31 05:59:40;;;;;;;;;;;;;;;16.50;100.00;100733.50;10501885;28;20378;-73
2023/07/31 06:04:42;;;;;;;;;;;;;;;16.68;100.00;100724.03;10506402;28;19930;-74
2023/07/31 06:09:44;;;;;;;;;;;;;;;16.41;100.00;100737.75;10506235;28;19924;-73
2023/07/31 06:14:46;;;;;;;;;;;;;;;16.63;100.00;100728.88;10506159;28;19933;-73
2023/07/31 06:19:49;;;;;;;;;;;;;;;16.69;100.00;100709.84;10504700;28;19924;-73
2023/07/31 06:24:51;;;;;;;;;;;;;;;16.75;100.00;100694.44;10505776;28;19924;-73
2023/07/31 06:29:53;;;;;;;;;;;;;;;16.76;100.00;100696.09;10505373;28;19947;-73
2023/07/31 06:34:56;;;;;;;;;;;;;;;16.71;100.00;100701.78;10505574;28;19928;-73
2023/07/31 06:39:58;;;;;;;;;;;;;;;16.86;100.00;100702.28;10504971;28;19924;-72
2023/07/31 06:45:01;;;;;;;;;;;;;;;16.90;100.00;100686.03;10504439;28;19928;-74
2023/07/31 06:50:03;;;;;;;;;;;;;;;16.85;100.00;100672.38;10503511;28;19924;-71
2023/07/31 06:55:19;;;;;;;;;;;;;;;16.67;100.00;100666.00;10503067;28;19950;-81
2023/07/31 07:00:21;;;;;;;;;;;;;;;16.99;100.00;100668.53;10503273;28;19931;-80
2023/07/31 07:05:24;;;;;;;;;;;;;;;16.85;100.00;100666.28;10503927;28;19925;-79
2023/07/31 07:10:26;;;;;;;;;;;;;;;16.94;100.00;100667.28;10503724;28;20383;-80
2023/07/31 07:15:28;;;;;;;;;;;;;;;16.90;100.00;100664.91;10503614;28;20368;-80
2023/07/31 07:20:31;;;;;;;;;;;;;;;16.75;100.00;100655.59;10503646;28;19925;-80
2023/07/31 07:25:33;;;;;;;;;;;;;;;17.21;100.00;100643.69;10503104;28;19931;-80
2023/07/31 07:30:35;;;;;;;;;;;;;;;17.49;100.00;100643.09;10502959;28;20295;-80
2023/07/31 07:35:37;;;;;;;;;;;;;;;17.49;100.00;100651.03;10502930;28;20359;-79
2023/07/31 07:40:40;;;;;;;;;;;;;;;17.26;100.00;100633.56;10502662;28;20393;-79
2023/07/31 07:45:42;;;;;;;;;;;;;;;17.17;100.00;100630.91;10501222;28;19924;-80
2023/07/31 07:50:45;;;;;;;;;;;;;;;17.31;100.00;100627.84;10501358;28;19924;-79
2023/07/31 07:55:47;;;;;;;;;;;;;;;17.39;100.00;100633.31;10502382;28;19931;-79
2023/07/31 08:00:52;;;;;;;;;;;;;;;17.31;100.00;100638.44;10502149;28;19924;-79
2023/07/31 08:06:03;;;;;;;;;;;;;;;17.27;100.00;100627.28;10501689;28;20390;-79
2023/07/31 08:11:06;;;;;;;;;;;;;;;17.44;100.00;100624.97;10500439;28;20383;-79
2023/07/31 08:16:08;;;;;;;;;;;;;;;17.49;100.00;100609.50;10500041;28;19925;-79
2023/07/31 08:21:11;;;;;;;;;;;;;;;17.35;100.00;100623.97;10500562;28;19924;-79
2023/07/31 08:26:17;;;;;;;;;;;;;;;17.34;100.00;100637.34;10500842;28;20047;-78
2023/07/31 08:31:19;;;;;;;;;;;;;;;17.42;100.00;100624.28;10499567;28;19924;-79
2023/07/31 08:36:21;;;;;;;;;;;;;;;17.15;100.00;100624.91;10499525;28;19925;-78
2023/07/31 08:41:24;;;;;;;;;;;;;;;17.35;100.00;100626.63;10498982;28;19925;-79
2023/07/31 08:46:26;;;;;;;;;;;;;;;17.33;100.00;100615.34;10515530;28;19950;-80
2023/07/31 08:51:28;;;;;;;;;;;;;;;17.52;100.00;100621.66;10482354;28;19931;-80
2023/07/31 08:56:31;;;;;;;;;;;;;;;17.60;100.00;100635.00;10498490;28;19924;-80
2023/07/31 09:01:35;;;;;;;;;;;;;;;17.67;100.00;100617.63;10498617;28;19924;-80
2023/07/31 09:06:37;;;;;;;;;;;;;;;17.60;100.00;100619.13;10499205;28;19978;-80
2023/07/31 09:11:40;;;;;;;;;;;;;;;17.48;100.00;100634.28;10498203;28;19924;-79
2023/07/31 09:16:53;;;;;;;;;;;;;;;17.57;100.00;100628.19;10497940;28;20304;-80
2023/07/31 09:21:55;;;;;;;;;;;;;;;17.56;100.00;100618.56;10497991;28;19928;-79
2023/07/31 09:26:58;;;;;;;;;;;;;;;17.46;100.00;100623.84;10498855;28;19974;-79
2023/07/31 09:32:01;;;;;;;;;;;;;;;17.44;100.00;100625.78;10497946;28;20361;-79
2023/07/31 09:37:03;;;;;;;;;;;;;;;17.35;100.00;100612.53;10498690;28;20379;-78
2023/07/31 09:42:06;;;;;;;;;;;;;;;17.29;100.00;100610.47;10497141;28;20007;-79
2023/07/31 09:47:21;;;;;;;;;;;;;;;17.53;100.00;100607.41;10497496;28;19925;-77
2023/07/31 09:52:25;;;;;;;;;;;;;;;17.41;100.00;100598.78;10497160;28;19924;-77
2023/07/31 09:57:28;;;;;;;;;;;;;;;17.62;100.00;100602.13;10498424;28;19931;-79
2023/07/31 10:02:30;;;;;;;;;;;;;;;17.52;100.00;100597.81;10498037;28;19924;-77
2023/07/31 10:07:34;;;;;;;;;;;;;;;17.46;100.00;100596.53;10496601;28;20375;-79
2023/07/31 10:12:37;;;;;;;;;;;;;;;17.58;100.00;100594.59;10496687;28;19938;-77
2023/07/31 10:17:39;;;;;;;;;;;;;;;17.49;100.00;100598.09;10497100;28;19924;-77
2023/07/31 10:22:42;;;;;;;;;;;;;;;17.68;100.00;100597.25;10497848;28;19952;-77
2023/07/31 10:27:44;;;;;;;;;;;;;;;17.84;100.00;100592.25;10496194;28;19924;-78
2023/07/31 10:32:46;;;;;;;;;;;;;;;17.97;100.00;100591.97;10497363;28;20023;-77
2023/07/31 10:37:48;;;;;;;;;;;;;;;18.20;100.00;100576.59;10479730;28;19931;-77
2023/07/31 10:42:52;;;;;;;;;;;;;;;18.29;100.00;100569.59;10497286;28;19925;-77
2023/07/31 10:48:02;;;;;;;;;;;;;;;18.29;100.00;100577.56;10504703;28;20397;-78
2023/07/31 10:53:04;;;;;;;;;;;;;;;18.41;100.00;100570.25;10503469;28;19959;-77
2023/07/31 10:58:10;;;;;;;;;;;;;;;18.69;100.00;100568.50;10504391;28;19928;-76
2023/07/31 11:03:14;;;;;;;;;;;;;;;18.61;100.00;100569.25;10504326;28;20426;-77
2023/07/31 11:08:23;;;;;;;;;;;;;;;18.69;100.00;100564.03;10503009;28;19982;-76
2023/07/31 11:13:25;;;;;;;;;;;;;;;18.64;100.00;100547.69;10502799;28;19924;-77
2023/07/31 11:18:27;;;;;;;;;;;;;;;18.69;100.00;100549.94;10503770;28;19925;-77
2023/07/31 11:23:30;;;;;;;;;;;;;;;18.34;100.00;100560.25;10503646;28;19924;-76
2023/07/31 11:28:33;;;;;;;;;;;;;;;18.33;100.00;100563.88;10502163;28;20382;-76
2023/07/31 11:33:36;;;;;;;;;;;;;;;18.27;100.00;100567.09;10502165;28;19931;-77
2023/07/31 11:38:38;;;;;;;;;;;;;;;18.26;100.00;100561.97;10501746;28;19924;-77
2023/07/31 11:43:40;;;;;;;;;;;;;;;18.47;100.00;100562.56;10501749;28;19925;-77
2023/07/31 11:48:42;;;;;;;;;;;;;;;18.63;100.00;100555.84;10502436;28;19967;-78
2023/07/31 11:53:45;;;;;;;;;;;;;;;18.61;100.00;100550.69;10502197;28;19959;-77
2023/07/31 11:58:48;;;;;;;;;;;;;;;18.62;100.00;100549.69;10501373;28;19928;-78
2023/07/31 12:03:50;;;;;;;;;;;;;;;18.75;100.00;100550.16;10500655;28;19960;-77
2023/07/31 12:08:52;;;;;;;;;;;;;;;18.55;100.00;100553.91;10500458;28;19930;-77
2023/07/31 12:13:54;;;;;;;;;;;;;;;18.95;100.00;100531.53;10501460;28;19924;-77
2023/07/31 12:18:57;;;;;;;;;;;;;;;19.13;100.00;100542.16;10501418;28;20019;-78
2023/07/31 12:23:59;;;;;;;;;;;;;;;18.77;100.00;100544.72;10501489;28;19928;-77
2023/07/31 12:29:01;;;;;;;;;;;;;;;18.74;100.00;100553.81;10500864;28;19925;-77
2023/07/31 12:34:03;;;;;;;;;;;;;;;18.86;100.00;100548.34;10500658;28;19924;-76
2023/07/31 12:39:06;;;;;;;;;;;;;;;18.75;100.00;100528.97;10499055;28;19925;-76
2023/07/31 12:44:09;;;;;;;;;;;;;;;18.85;100.00;100517.50;10499902;28;19924;-77
2023/07/31 12:49:12;;;;;;;;;;;;;;;18.89;100.00;100511.72;10500078;28;19924;-76
2023/07/31 12:54:14;;;;;;;;;;;;;;;18.95;100.00;100515.63;10499831;28;19924;-76
2023/07/31 12:59:16;;;;;;;;;;;;;;;18.71;100.00;100514.34;10499695;28;19931;-78
2023/07/31 13:04:18;;;;;;;;;;;;;;;18.89;100.00;100511.72;10499231;28;19924;-77
2023/07/31 13:09:21;;;;;;;;;;;;;;;19.23;100.00;100481.91;10499403;28;19925;-77
2023/07/31 13:14:23;;;;;;;;;;;;;;;19.00;100.00;100486.00;10499243;28;19928;-75
2023/07/31 13:19:25;;;;;;;;;;;;;;;18.78;100.00;100489.84;10482057;28;19925;-78
2023/07/31 13:24:27;;;;;;;;;;;;;;;18.85;100.00;100493.63;10498932;28;20280;-77
2023/07/31 13:29:30;;;;;;;;;;;;;;;18.73;100.00;100490.31;10502141;28;19931;-77
2023/07/31 13:34:32;;;;;;;;;;;;;;;18.81;100.00;100495.72;10502070;28;20287;-78
2023/07/31 13:39:34;;;;;;;;;;;;;;;18.87;100.00;100476.56;10498992;28;19924;-78
2023/07/31 13:44:37;;;;;;;;;;;;;;;18.67;100.00;100475.81;10498946;28;20011;-78
2023/07/31 13:49:41;;;;;;;;;;;;;;;18.89;100.00;100482.56;10481818;28;20015;-76
2023/07/31 13:54:43;;;;;;;;;;;;;;;18.99;100.00;100463.94;10500149;28;19931;-77
2023/07/31 13:59:46;;;;;;;;;;;;;;;19.04;100.00;100459.00;10501744;28;19924;-77
2023/07/31 14:04:48;;;;;;;;;;;;;;;19.07;100.00;100471.13;10502271;28;19928;-76
2023/07/31 14:09:50;;;;;;;;;;;;;;;18.96;100.00;100460.75;10501135;28;19925;-76
2023/07/31 14:14:52;;;;;;;;;;;;;;;18.86;100.00;100455.50;10499985;28;19931;-76
2023/07/31 14:19:55;;;;;;;;;;;;;;;18.89;100.00;100461.34;10502793;28;19924;-76
2023/07/31 14:24:57;;;;;;;;;;;;;;;19.05;100.00;100460.69;10507677;28;19924;-77
2023/07/31 14:29:59;;;;;;;;;;;;;;;19.02;100.00;100458.31;10506790;28;19932;-76
2023/07/31 14:35:02;;;;;;;;;;;;;;;18.89;100.00;100469.28;10506569;28;20276;-76
2023/07/31 14:40:04;;;;;;;;;;;;;;;18.94;100.00;100467.03;10505109;28;19924;-77
2023/07/31 14:45:07;;;;;;;;;;;;;;;18.67;100.00;100470.53;10503695;28;19924;-77
2023/07/31 14:50:09;;;;;;;;;;;;;;;18.64;100.00;100456.72;10504015;28;19924;-76
2023/07/31 14:55:11;;;;;;;;;;;;;;;18.62;100.00;100435.66;10504318;28;19924;-77
2023/07/31 15:00:14;;;;;;;;;;;;;;;18.65;100.00;100442.50;10506644;28;19978;-77
2023/07/31 15:05:16;;;;;;;;;;;;;;;18.50;100.00;100436.88;10505509;28;19924;-76
2023/07/31 15:10:18;;;;;;;;;;;;;;;18.50;100.00;100426.25;10506830;28;19934;-76
2023/07/31 15:15:21;;;;;;;;;;;;;;;18.45;100.00;100421.41;10511477;28;20012;-78
2023/07/31 15:20:23;;;;;;;;;;;;;;;18.54;100.00;100423.19;10517452;28;19925;-77
2023/07/31 15:25:25;;;;;;;;;;;;;;;18.54;100.00;100403.75;10506549;28;20291;-78
2023/07/31 15:30:27;;;;;;;;;;;;;;;18.53;100.00;100402.94;10505045;28;19925;-77
2023/07/31 15:35:30;;;;;;;;;;;;;;;18.47;100.00;100398.22;10509914;28;19925;-78
2023/07/31 15:40:32;;;;;;;;;;;;;;;18.48;100.00;100391.13;10509200;28;19924;-77
2023/07/31 15:45:34;;;;;;;;;;;;;;;18.34;100.00;100374.75;10506280;28;19946;-77
2023/07/31 15:50:36;;;;;;;;;;;;;;;18.43;100.00;100367.72;10504075;28;20379;-77
2023/07/31 15:55:39;;;;;;;;;;;;;;;18.51;100.00;100354.56;10503820;28;20015;-77
2023/07/31 16:00:41;;;;;;;;;;;;;;;18.40;100.00;100344.16;10503781;28;19925;-77
2023/07/31 16:05:43;;;;;;;;;;;;;;;18.54;100.00;100337.50;10502209;28;19924;-73
2023/07/31 16:10:45;;;;;;;;;;;;;;;18.44;100.00;100329.63;10503196;28;19924;-76
2023/07/31 16:15:48;;;;;;;;;;;;;;;18.18;100.00;100314.44;10501896;28;19925;-78
2023/07/31 16:20:50;;;;;;;;;;;;;;;18.30;100.00;100327.50;10501473;28;19931;-79
2023/07/31 16:25:52;;;;;;;;;;;;;;;18.17;100.00;100326.03;10499907;28;19930;-78
2023/07/31 16:30:55;;;;;;;;;;;;;;;18.05;100.00;100327.22;10500616;28;19925;-78
2023/07/31 16:35:57;;;;;;;;;;;;;;;18.13;100.00;100313.25;10500698;28;19931;-79
2023/07/31 16:40:59;;;;;;;;;;;;;;;17.91;100.00;100298.59;10499976;28;19929;-78
2023/07/31 16:46:03;;;;;;;;;;;;;;;17.62;100.00;100291.59;10498246;28;20304;-79
2023/07/31 16:51:06;;;;;;;;;;;;;;;17.78;100.00;100302.38;10500067;28;19924;-79
2023/07/31 16:56:08;;;;;;;;;;;;;;;17.91;100.00;100290.66;10503273;22;20972;-67
2023/07/31 17:01:10;;;;;;;;;;;;;;;17.89;100.00;100282.03;10440574;28;20298;-67
2023/07/31 17:06:12;;;;;;;;;;;;;;;17.81;100.00;100250.94;10457982;28;19925;-67
2023/07/31 17:11:15;;;;;;;;;;;;;;;17.79;100.00;100251.09;10457909;28;19933;-67
2023/07/31 17:16:18;;;;;;;;;;;;;;;17.73;100.00;100251.66;10457757;28;19960;-67
2023/07/31 17:21:20;;;;;;;;;;;;;;;17.68;100.00;100242.50;10440220;28;19976;-67
2023/07/31 17:26:23;;;;;;;;;;;;;;;17.72;100.00;100243.88;10439914;28;19931;-67
2023/07/31 17:31:26;;;;;;;;;;;;;;;17.69;100.00;100234.44;10457251;28;20280;-67
2023/07/31 17:36:28;;;;;;;;;;;;;;;17.73;100.00;100229.66;10457149;28;19925;-67
2023/07/31 17:41:31;;;;;;;;;;;;;;;17.74;100.00;100220.75;10457066;28;19935;-67
2023/07/31 17:46:34;;;;;;;;;;;;;;;17.60;100.00;100222.06;10439338;28;19931;-67
2023/07/31 17:51:36;;;;;;;;;;;;;;;17.64;100.00;100216.34;10456883;28;19931;-67
2023/07/31 17:56:38;;;;;;;;;;;;;;;17.64;100.00;100215.50;10455558;28;20015;-67
2023/07/31 18:01:41;;;;;;;;;;;;;;;17.59;100.00;100204.53;10456580;28;20009;-67
2023/07/31 18:06:43;;;;;;;;;;;;;;;17.59;100.00;100215.13;10456388;28;19929;-67
2023/07/31 18:11:45;;;;;;;;;;;;;;;17.57;100.00;100195.91;10456529;28;19931;-67
2023/07/31 18:16:48;;;;;;;;;;;;;;;17.67;100.00;100190.53;10438574;28;19947;-68
2023/07/31 18:21:50;;;;;;;;;;;;;;;17.77;100.00;100186.00;10456034;28;19936;-67
2023/07/31 18:26:52;;;;;;;;;;;;;;;17.58;100.00;100176.38;10455951;28;19932;-67
2023/07/31 18:31:54;;;;;;;;;;;;;;;17.85;100.00;100162.28;10438285;28;19931;-67
2023/07/31 18:36:57;;;;;;;;;;;;;;;17.78;100.00;100147.97;10456085;28;19931;-68
2023/07/31 18:41:59;;;;;;;;;;;;;;;17.72;100.00;100148.56;10455673;28;20322;-67
2023/07/31 18:47:01;;;;;;;;;;;;;;;17.82;100.00;100149.34;10455660;28;20391;-67
2023/07/31 18:52:04;;;;;;;;;;;;;;;17.84;100.00;100147.38;10455828;28;19925;-67
2023/07/31 18:57:06;;;;;;;;;;;;;;;17.83;100.00;100137.75;10455458;28;19933;-67
2023/07/31 19:02:08;;;;;;;;;;;;;;;17.67;100.00;100150.84;10437985;28;19925;-66
2023/07/31 19:07:11;;;;;;;;;;;;;;;17.83;100.00;100154.47;10442850;28;19925;-66
2023/07/31 19:12:14;;;;;;;;;;;;;;;17.74;100.00;100130.75;10462704;28;19940;-66
2023/07/31 19:17:16;;;;;;;;;;;;;;;17.65;100.00;100119.22;10445022;28;19931;-74
2023/07/31 19:22:18;;;;;;;;;;;;;;;17.57;100.00;100101.47;10444736;28;19925;-74
2023/07/31 19:27:21;;;;;;;;;;;;;;;17.75;100.00;100116.50;10462091;28;19935;-74
2023/07/31 19:32:23;;;;;;;;;;;;;;;17.67;100.00;100116.41;10461862;28;20279;-74
2023/07/31 19:37:25;;;;;;;;;;;;;;;17.63;100.00;100116.75;10444192;28;19931;-74
2023/07/31 19:42:28;;;;;;;;;;;;;;;17.76;100.00;100086.41;10461378;28;20043;-74
2023/07/31 19:47:30;;;;;;;;;;;;;;;17.65;100.00;100100.69;10461284;28;19932;-74
2023/07/31 19:52:32;;;;;;;;;;;;;;;17.79;100.00;100091.41;10460890;28;19932;-74
2023/07/31 19:57:35;;;;;;;;;;;;;;;17.77;100.00;100088.91;10460638;28;20283;-74
2023/07/31 20:02:37;;;;;;;;;;;;;;;17.45;100.00;100097.38;10426517;28;19947;-74
2023/07/31 20:07:39;;;;;;;;;;;;;;;17.46;100.00;100094.56;10460837;28;20288;-74
2023/07/31 20:12:41;;;;;;;;;;;;;;;17.40;100.00;100087.22;10460148;28;20295;-74
2023/07/31 20:17:44;;;;;;;;;;;;;;;17.44;100.00;100087.75;10459309;28;19931;-74
2023/07/31 20:22:46;;;;;;;;;;;;;;;17.25;100.00;100092.19;10460045;28;19924;-73
2023/07/31 20:27:48;;;;;;;;;;;;;;;17.38;100.00;100075.97;10459691;28;19925;-74
2023/07/31 20:32:51;;;;;;;;;;;;;;;17.13;100.00;100066.94;10459387;28;19929;-73
2023/07/31 20:37:53;;;;;;;;;;;;;;;17.18;100.00;100087.63;10459424;28;19978;-75
2023/07/31 20:42:56;;;;;;;;;;;;;;;17.06;100.00;100084.38;10458907;28;19931;-74
2023/07/31 20:48:02;;;;;;;;;;;;;;;17.16;100.00;100073.72;10441133;28;19999;-74
2023/07/31 20:53:04;;;;;;;;;;;;;;;17.28;100.00;100061.94;10458350;28;19928;-73
2023/07/31 20:58:08;;;;;;;;;;;;;;;17.10;100.00;100067.25;10458164;28;20367;-73
2023/07/31 21:03:10;;;;;;;;;;;;;;;17.11;100.00;100062.78;10440659;28;19925;-73
2023/07/31 21:08:13;;;;;;;;;;;;;;;17.07;100.00;100033.16;10457906;28;19932;-73
2023/07/31 21:13:15;;;;;;;;;;;;;;;17.27;100.00;100020.63;10457848;28;20356;-73
2023/07/31 21:18:17;;;;;;;;;;;;;;;17.21;100.00;100015.94;10439957;28;19964;-73
2023/07/31 21:23:19;;;;;;;;;;;;;;;17.05;100.00;100000.75;10457392;28;20422;-73
2023/07/31 21:28:22;;;;;;;;;;;;;;;17.07;100.00;99999.59;10457199;28;19924;-73
2023/07/31 21:33:24;;;;;;;;;;;;;;;17.07;100.00;99994.31;10457140;28;19924;-73
2023/07/31 21:38:27;;;;;;;;;;;;;;;17.23;100.00;99976.91;10457240;28;19956;-74
2023/07/31 21:43:29;;;;;;;;;;;;;;;17.21;100.00;99979.72;10456974;28;19931;-73
2023/07/31 21:48:31;;;;;;;;;;;;;;;17.07;100.00;99962.56;10456953;28;19938;-73
2023/07/31 21:53:34;;;;;;;;;;;;;;;16.99;100.00;99957.19;10456659;28;19931;-73
2023/07/31 21:58:36;;;;;;;;;;;;;;;17.17;100.00;99956.38;10456623;28;19975;-73
2023/07/31 22:03:39;;;;;;;;;;;;;;;17.15;100.00;99955.72;10456522;28;20303;-73
2023/07/31 22:08:41;;;;;;;;;;;;;;;17.09;100.00;99955.31;10456309;28;19952;-73
2023/07/31 22:13:43;;;;;;;;;;;;;;;17.04;100.00;99938.25;10456647;28;20004;-73
2023/07/31 22:18:46;;;;;;;;;;;;;;;17.04;100.00;99927.66;10456190;28;19932;-73
2023/07/31 22:23:48;;;;;;;;;;;;;;;17.13;100.00;99907.41;10456114;28;20381;-73
2023/07/31 22:28:50;;;;;;;;;;;;;;;16.92;100.00;99907.72;10456110;28;19925;-73
2023/07/31 22:33:52;;;;;;;;;;;;;;;16.89;100.00;99907.06;10438208;28;19971;-73
2023/07/31 22:38:55;;;;;;;;;;;;;;;16.99;100.00;99898.19;10456256;28;20386;-73
2023/07/31 22:43:58;;;;;;;;;;;;;;;16.91;100.00;99901.59;10445953;28;19940;-73
2023/07/31 22:49:00;;;;;;;;;;;;;;;16.93;100.00;99881.13;10463642;28;19929;-73
2023/07/31 22:54:02;;;;;;;;;;;;;;;16.80;100.00;99878.00;10463526;28;19925;-73
2023/07/31 22:59:05;;;;;;;;;;;;;;;17.03;100.00;99875.75;10462805;28;20261;-73
2023/07/31 23:04:07;;;;;;;;;;;;;;;16.80;100.00;99872.72;10463273;28;19932;-72
2023/07/31 23:09:09;;;;;;;;;;;;;;;16.88;100.00;99878.13;10462724;28;19931;-73
2023/07/31 23:14:11;;;;;;;;;;;;;;;16.96;100.00;99878.16;10462795;28;19929;-73
2023/07/31 23:19:14;;;;;;;;;;;;;;;16.97;100.00;99848.13;10462420;28;19925;-73
2023/07/31 23:24:16;;;;;;;;;;;;;;;16.89;100.00;99850.69;10444612;28;19925;-72
2023/07/31 23:29:18;;;;;;;;;;;;;;;16.76;100.00;99843.13;10461866;28;20398;-73
2023/07/31 23:34:20;;;;;;;;;;;;;;;16.74;100.00;99839.78;10461739;28;19931;-73
2023/07/31 23:39:22;;;;;;;;;;;;;;;16.80;100.00;99838.38;10461734;28;19925;-72
2023/07/31 23:44:25;;;;;;;;;;;;;;;16.70;100.00;99833.16;10461465;28;19929;-73
2023/07/31 23:49:27;;;;;;;;;;;;;;;16.69;100.00;99826.19;10443710;28;19925;-72
2023/07/31 23:54:29;;;;;;;;;;;;;;;16.65;100.00;99807.16;10459758;28;20023;-73
2023/07/31 23:59:32;;;;;;;;;;;;;;;16.74;100.00;99797.50;10460770;28;19929;-73
